Time;durP1;ratioP1;P1;durP2;ratioP2;P2;SDS_P1;SDS_P2;PMS_P1;PMS_P2;Temp;Humidity;BMP_temperature;BMP_pressure;BME280_temperature;BME280_humidity;BME280_pressure;Samples;Min_cycle;Max_cycle;Signal;HPM_P1;HPM_P2
2023/08/26 00:02:19;;;;;;;;;;;17.90;99.90;;;;;;8394717;28;19924;-71
2023/08/26 00:06:20;;;;;;;;;;;17.80;99.90;;;;;;8373499;28;19931;-71
2023/08/26 00:10:22;;;;;;;;;;;17.80;99.90;;;;;;8348175;28;19925;-71
2023/08/26 00:14:24;;;;;;;;;;;17.80;99.90;;;;;;8357323;28;19925;-71
2023/08/26 00:18:26;;;;;;;;;;;17.70;99.90;;;;;;8356322;28;20278;-71
2023/08/26 00:22:27;;;;;;;;;;;17.70;99.90;;;;;;8351818;28;20434;-71
2023/08/26 00:26:29;;;;;;;;;;;17.70;99.90;;;;;;8362823;28;20442;-71
2023/08/26 00:30:31;;;;;;;;;;;17.70;99.90;;;;;;8356302;28;20351;-71
2023/08/26 00:34:32;;;;;;;;;;;17.70;99.90;;;;;;8339920;28;19925;-71
2023/08/26 00:38:34;;;;;;;;;;;17.70;99.90;;;;;;8360310;28;19929;-72
2023/08/26 00:42:36;;;;;;;;;;;17.70;99.90;;;;;;8356983;28;19932;-71
2023/08/26 00:46:38;;;;;;;;;;;17.70;99.90;;;;;;8360589;28;19983;-71
2023/08/26 00:50:41;;;;;;;;;;;17.70;99.90;;;;;;8341554;28;20304;-71
2023/08/26 00:54:43;;;;;;;;;;;17.70;99.90;;;;;;8346952;28;19951;-71
2023/08/26 00:58:45;;;;;;;;;;;17.70;99.90;;;;;;8360735;28;20373;-71
2023/08/26 01:02:47;;;;;;;;;;;17.70;99.90;;;;;;8361964;28;19940;-71
2023/08/26 01:06:49;;;;;;;;;;;17.70;99.90;;;;;;8343008;28;19925;-71
2023/08/26 01:11:07;;;;;;;;;;;17.70;99.90;;;;;;8370258;28;19924;-71
2023/08/26 01:15:11;;;;;;;;;;;17.70;99.90;;;;;;8384086;28;20044;-71
2023/08/26 01:19:20;;;;;;;;;;;17.70;99.90;;;;;;8374563;28;19932;-71
2023/08/26 01:23:40;;;;;;;;;;;17.60;99.90;;;;;;8385070;28;19925;-71
2023/08/26 01:27:42;;;;;;;;;;;17.60;99.90;;;;;;8382914;28;19954;-71
2023/08/26 01:31:45;;;;;;;;;;;17.50;99.90;;;;;;8378491;28;19932;-71
2023/08/26 01:35:47;;;;;;;;;;;17.40;99.90;;;;;;8379506;28;19924;-71
2023/08/26 01:39:51;;;;;;;;;;;17.40;99.90;;;;;;8371601;28;20276;-72
2023/08/26 01:43:53;;;;;;;;;;;17.30;99.90;;;;;;8379342;28;20287;-71
2023/08/26 01:47:55;;;;;;;;;;;17.40;99.90;;;;;;8389287;28;19935;-71
2023/08/26 01:51:57;;;;;;;;;;;17.40;99.90;;;;;;8390418;28;19963;-71
2023/08/26 01:55:58;;;;;;;;;;;17.40;99.90;;;;;;8421338;28;19970;-71
2023/08/26 02:00:00;;;;;;;;;;;17.30;99.90;;;;;;8373149;28;19924;-71
2023/08/26 02:04:02;;;;;;;;;;;17.40;99.90;;;;;;8387243;28;20364;-71
2023/08/26 02:08:04;;;;;;;;;;;17.30;99.90;;;;;;8415204;28;19925;-71
2023/08/26 02:12:06;;;;;;;;;;;17.30;99.90;;;;;;8381790;28;19932;-71
2023/08/26 02:16:07;;;;;;;;;;;17.20;99.90;;;;;;8377178;28;19932;-71
2023/08/26 02:20:09;;;;;;;;;;;17.10;99.90;;;;;;8408679;28;19924;-71
2023/08/26 02:24:11;;;;;;;;;;;17.10;99.90;;;;;;8382668;28;19924;-71
2023/08/26 02:28:13;;;;;;;;;;;17.00;99.90;;;;;;8380839;28;20445;-71
2023/08/26 02:32:14;;;;;;;;;;;16.90;99.90;;;;;;8403253;28;20292;-71
2023/08/26 02:36:16;;;;;;;;;;;16.90;99.90;;;;;;8410862;28;19925;-71
2023/08/26 02:40:18;;;;;;;;;;;16.80;99.90;;;;;;8385686;28;19924;-71
2023/08/26 02:44:19;;;;;;;;;;;16.80;99.90;;;;;;8387439;28;19975;-71
2023/08/26 02:48:21;;;;;;;;;;;16.70;99.90;;;;;;8373903;28;19932;-71
2023/08/26 02:52:23;;;;;;;;;;;16.60;99.90;;;;;;8408234;28;19946;-71
2023/08/26 02:56:25;;;;;;;;;;;16.50;99.90;;;;;;8413936;28;19924;-71
2023/08/26 03:00:27;;;;;;;;;;;16.40;99.90;;;;;;8393922;28;19928;-71
2023/08/26 03:04:29;;;;;;;;;;;16.40;99.90;;;;;;8396410;28;19954;-71
2023/08/26 03:08:31;;;;;;;;;;;16.30;99.90;;;;;;8389114;28;19931;-72
2023/08/26 03:12:33;;;;;;;;;;;16.20;99.90;;;;;;8389952;28;19925;-71
2023/08/26 03:16:34;;;;;;;;;;;16.20;99.90;;;;;;8378199;28;20303;-71
2023/08/26 03:20:36;;;;;;;;;;;16.10;99.90;;;;;;8380344;28;19932;-71
2023/08/26 03:24:38;;;;;;;;;;;16.10;99.90;;;;;;8393411;28;20365;-72
2023/08/26 03:28:40;;;;;;;;;;;16.00;99.90;;;;;;8391825;28;19925;-71
2023/08/26 03:32:41;;;;;;;;;;;16.00;99.90;;;;;;8413104;28;19970;-71
2023/08/26 03:36:43;;;;;;;;;;;16.00;99.90;;;;;;8384993;28;19981;-71
2023/08/26 03:40:45;;;;;;;;;;;15.90;99.90;;;;;;8376583;28;19936;-71
2023/08/26 03:44:46;;;;;;;;;;;15.90;99.90;;;;;;8388744;28;20356;-71
2023/08/26 03:48:48;;;;;;;;;;;15.90;99.90;;;;;;8391522;28;20407;-71
2023/08/26 03:52:49;;;;;;;;;;;15.90;99.90;;;;;;8380891;28;19951;-71
2023/08/26 03:56:51;;;;;;;;;;;15.90;99.90;;;;;;8383516;28;19924;-71
2023/08/26 04:01:04;;;;;;;;;;;15.90;99.90;;;;;;8395463;28;20395;-71
2023/08/26 04:05:06;;;;;;;;;;;15.90;99.90;;;;;;8387860;28;19947;-71
2023/08/26 04:09:08;;;;;;;;;;;15.80;99.90;;;;;;8382472;28;20378;-71
2023/08/26 04:13:23;;;;;;;;;;;15.80;99.90;;;;;;8403613;28;20423;-71
2023/08/26 04:17:25;;;;;;;;;;;15.80;99.90;;;;;;8384938;28;20380;-71
2023/08/26 04:21:27;;;;;;;;;;;15.70;99.90;;;;;;8395601;28;20384;-71
2023/08/26 04:25:29;;;;;;;;;;;15.60;99.90;;;;;;8381441;28;19924;-71
2023/08/26 04:29:30;;;;;;;;;;;15.60;99.90;;;;;;8387917;28;19924;-71
2023/08/26 04:33:32;;;;;;;;;;;15.60;99.90;;;;;;8392719;28;20292;-71
2023/08/26 04:37:34;;;;;;;;;;;15.50;99.90;;;;;;8383931;28;19928;-72
2023/08/26 04:41:35;;;;;;;;;;;15.50;99.90;;;;;;8392988;28;19928;-71
2023/08/26 04:45:37;;;;;;;;;;;15.50;99.90;;;;;;8388127;28;19925;-71
2023/08/26 04:49:39;;;;;;;;;;;15.60;99.90;;;;;;8379751;28;19946;-71
2023/08/26 04:53:41;;;;;;;;;;;15.60;99.90;;;;;;8388095;28;19928;-71
2023/08/26 04:57:43;;;;;;;;;;;15.60;99.90;;;;;;8386123;28;19997;-71
2023/08/26 05:01:44;;;;;;;;;;;15.50;99.90;;;;;;8388991;28;19925;-71
2023/08/26 05:05:46;;;;;;;;;;;15.50;99.90;;;;;;8392963;28;19947;-71
2023/08/26 05:09:48;;;;;;;;;;;15.40;99.90;;;;;;8391553;28;19979;-71
2023/08/26 05:13:49;;;;;;;;;;;15.40;99.90;;;;;;8417083;28;19925;-72
2023/08/26 05:17:51;;;;;;;;;;;15.30;99.90;;;;;;8395066;28;19928;-71
2023/08/26 05:21:53;;;;;;;;;;;15.30;99.90;;;;;;8397238;28;19967;-71
2023/08/26 05:25:54;;;;;;;;;;;15.30;99.90;;;;;;8391779;28;19931;-71
2023/08/26 05:29:56;;;;;;;;;;;15.30;99.90;;;;;;8387170;28;19939;-71
2023/08/26 05:33:58;;;;;;;;;;;15.40;99.90;;;;;;8414686;28;19939;-71
2023/08/26 05:38:00;;;;;;;;;;;15.40;99.90;;;;;;8385185;28;19940;-71
2023/08/26 05:42:01;;;;;;;;;;;15.40;99.90;;;;;;8371732;28;19933;-71
2023/08/26 05:46:03;;;;;;;;;;;15.40;99.90;;;;;;8410696;27;20009;-71
2023/08/26 05:50:05;;;;;;;;;;;15.40;99.90;;;;;;8397316;28;19978;-71
2023/08/26 05:54:07;;;;;;;;;;;15.40;99.90;;;;;;8382636;28;20685;-71
2023/08/26 05:58:08;;;;;;;;;;;15.50;99.90;;;;;;8376736;28;19925;-71
2023/08/26 06:02:10;;;;;;;;;;;15.50;99.90;;;;;;8379610;28;19932;-71
2023/08/26 06:06:12;;;;;;;;;;;15.50;99.90;;;;;;8393015;28;19974;-71
2023/08/26 06:10:13;;;;;;;;;;;15.50;99.90;;;;;;8409545;28;19929;-71
2023/08/26 06:14:15;;;;;;;;;;;15.50;99.90;;;;;;8408451;28;19932;-71
2023/08/26 06:18:17;;;;;;;;;;;15.60;99.90;;;;;;8386087;28;19940;-71
2023/08/26 06:22:18;;;;;;;;;;;15.70;99.90;;;;;;8405087;28;20381;-71
2023/08/26 06:26:20;;;;;;;;;;;15.60;99.90;;;;;;8404741;28;19925;-71
2023/08/26 06:30:22;;;;;;;;;;;15.70;99.90;;;;;;8395705;28;19928;-71
2023/08/26 06:34:24;;;;;;;;;;;15.70;99.90;;;;;;8395247;28;19925;-70
2023/08/26 06:38:25;;;;;;;;;;;15.70;99.90;;;;;;8397295;28;20061;-71
2023/08/26 06:42:27;;;;;;;;;;;15.70;99.90;;;;;;8395153;28;19924;-72
2023/08/26 06:46:29;;;;;;;;;;;15.80;99.90;;;;;;8412714;28;19924;-71
2023/08/26 06:50:30;;;;;;;;;;;15.90;99.90;;;;;;8396490;28;19924;-71
2023/08/26 06:54:33;;;;;;;;;;;16.00;99.90;;;;;;8399110;28;19940;-71
2023/08/26 06:58:34;;;;;;;;;;;16.10;99.90;;;;;;8395324;28;19936;-72
2023/08/26 07:02:36;;;;;;;;;;;16.10;99.90;;;;;;8408118;28;19924;-71
2023/08/26 07:06:38;;;;;;;;;;;16.20;99.90;;;;;;8391461;28;19928;-71
2023/08/26 07:10:40;;;;;;;;;;;16.30;99.90;;;;;;8389834;28;19924;-71
2023/08/26 07:14:42;;;;;;;;;;;16.40;99.90;;;;;;8392046;28;20376;-71
2023/08/26 07:18:44;;;;;;;;;;;16.50;99.90;;;;;;8393325;28;19931;-71
2023/08/26 07:22:46;;;;;;;;;;;16.40;99.90;;;;;;8422387;28;19924;-71
2023/08/26 07:26:48;;;;;;;;;;;16.40;99.90;;;;;;8390477;28;19928;-71
2023/08/26 07:30:51;;;;;;;;;;;16.30;99.90;;;;;;8390598;28;19925;-71
2023/08/26 07:34:52;;;;;;;;;;;16.30;99.90;;;;;;8395448;28;19928;-71
2023/08/26 07:38:54;;;;;;;;;;;16.20;99.90;;;;;;8425437;28;19946;-71
2023/08/26 07:47:59;;;;;;;;;;;16.30;99.90;;;;;;8396005;28;19924;-71
2023/08/26 07:52:04;;;;;;;;;;;16.50;99.90;;;;;;8395129;28;19924;-71
2023/08/26 07:56:06;;;;;;;;;;;16.60;99.90;;;;;;8396700;28;19928;-71
2023/08/26 08:00:08;;;;;;;;;;;16.70;99.90;;;;;;8387609;28;19928;-71
2023/08/26 08:04:11;;;;;;;;;;;16.70;99.90;;;;;;8394253;28;19924;-71
2023/08/26 08:08:12;;;;;;;;;;;16.80;99.90;;;;;;8389879;28;19936;-71
2023/08/26 08:12:14;;;;;;;;;;;16.90;99.90;;;;;;8388736;28;19925;-71
2023/08/26 08:16:16;;;;;;;;;;;16.90;99.90;;;;;;8425198;28;20416;-71
2023/08/26 08:20:19;;;;;;;;;;;16.90;99.90;;;;;;8390191;28;19932;-71
2023/08/26 08:24:21;;;;;;;;;;;17.00;99.90;;;;;;8394324;28;20438;-71
2023/08/26 08:28:23;;;;;;;;;;;17.00;99.90;;;;;;8418921;28;20038;-71
2023/08/26 08:32:25;;;;;;;;;;;17.10;99.90;;;;;;8407215;28;20284;-71
2023/08/26 08:36:27;;;;;;;;;;;17.20;99.90;;;;;;8393785;28;19982;-71
2023/08/26 08:40:28;;;;;;;;;;;17.10;99.90;;;;;;8398897;28;19932;-71
2023/08/26 08:44:33;;;;;;;;;;;17.20;99.90;;;;;;8392950;28;19932;-70
2023/08/26 08:48:35;;;;;;;;;;;17.30;99.90;;;;;;8390606;28;19970;-71
2023/08/26 08:52:38;;;;;;;;;;;17.40;99.90;;;;;;8425381;28;19999;-71
2023/08/26 08:56:39;;;;;;;;;;;17.40;99.90;;;;;;8423353;28;19924;-71
2023/08/26 09:00:41;;;;;;;;;;;17.50;99.90;;;;;;8387378;28;19925;-71
2023/08/26 09:04:43;;;;;;;;;;;17.50;99.90;;;;;;8391345;28;20285;-71
2023/08/26 09:08:45;;;;;;;;;;;17.60;99.90;;;;;;8382834;28;19925;-71
2023/08/26 09:17:56;;;;;;;;;;;17.90;99.90;;;;;;8377687;28;20489;-71
2023/08/26 09:21:58;;;;;;;;;;;17.90;99.90;;;;;;8390437;28;19935;-71
2023/08/26 09:26:00;;;;;;;;;;;18.00;99.90;;;;;;8390283;28;19932;-71
2023/08/26 09:30:03;;;;;;;;;;;18.00;99.90;;;;;;8383577;28;20368;-71
2023/08/26 09:34:05;;;;;;;;;;;18.00;99.90;;;;;;8382481;28;19951;-71
2023/08/26 09:38:08;;;;;;;;;;;18.00;99.90;;;;;;8381218;28;19933;-71
2023/08/26 09:42:10;;;;;;;;;;;18.10;99.90;;;;;;8387940;28;19925;-71
2023/08/26 09:46:21;;;;;;;;;;;18.10;99.90;;;;;;8391395;28;19972;-71
2023/08/26 09:50:31;;;;;;;;;;;18.10;99.90;;;;;;8387153;28;19929;-71
2023/08/26 09:54:33;;;;;;;;;;;18.20;99.90;;;;;;8392130;28;19932;-71
2023/08/26 09:58:35;;;;;;;;;;;18.30;99.90;;;;;;8390392;28;19951;-71
2023/08/26 10:02:37;;;;;;;;;;;18.30;99.90;;;;;;8380062;28;19970;-71
2023/08/26 10:12:20;;;;;;;;;;;18.30;99.90;;;;;;8376815;28;19927;-71
2023/08/26 10:16:23;;;;;;;;;;;18.40;99.90;;;;;;8355602;28;19932;-71
2023/08/26 10:20:35;;;;;;;;;;;18.40;99.90;;;;;;8350132;28;20323;-71
2023/08/26 10:34:52;;;;;;;;;;;19.00;99.90;;;;;;8342395;28;20007;-71
2023/08/26 10:38:55;;;;;;;;;;;19.00;99.90;;;;;;8358930;28;19970;-71
2023/08/26 10:43:04;;;;;;;;;;;18.80;99.90;;;;;;8332136;28;19925;-71
2023/08/26 10:47:06;;;;;;;;;;;18.70;99.90;;;;;;8358005;28;19925;-71
2023/08/26 10:51:07;;;;;;;;;;;18.80;99.90;;;;;;8357542;28;20434;-71
2023/08/26 10:55:17;;;;;;;;;;;19.00;99.90;;;;;;8369399;28;19936;-71
2023/08/26 10:59:33;;;;;;;;;;;19.20;99.90;;;;;;8357726;28;19983;-71
2023/08/26 11:03:36;;;;;;;;;;;19.40;99.90;;;;;;8337583;28;19929;-71
2023/08/26 11:07:38;;;;;;;;;;;19.30;99.90;;;;;;8346183;28;19929;-71
2023/08/26 11:11:40;;;;;;;;;;;19.20;99.90;;;;;;8338345;28;19926;-71
2023/08/26 11:15:42;;;;;;;;;;;19.00;99.90;;;;;;8376253;28;19924;-71
2023/08/26 11:19:44;;;;;;;;;;;18.90;99.90;;;;;;8388527;28;19936;-71
2023/08/26 11:23:46;;;;;;;;;;;19.00;99.90;;;;;;8393394;28;19978;-71
2023/08/26 11:27:48;;;;;;;;;;;18.90;99.90;;;;;;8385313;28;19924;-71
2023/08/26 11:31:49;;;;;;;;;;;18.80;99.90;;;;;;8388410;28;19925;-71
2023/08/26 11:35:51;;;;;;;;;;;18.80;99.90;;;;;;8381128;28;22444;-71
2023/08/26 11:40:08;;;;;;;;;;;18.80;99.90;;;;;;8906713;22;19947;-72
2023/08/26 11:44:13;;;;;;;;;;;18.80;99.90;;;;;;8405804;28;19924;-72
2023/08/26 11:48:15;;;;;;;;;;;18.70;99.90;;;;;;8433243;28;20378;-72
2023/08/26 11:52:17;;;;;;;;;;;18.60;99.90;;;;;;8430637;28;19924;-72
2023/08/26 11:56:19;;;;;;;;;;;18.60;99.90;;;;;;8422156;28;19932;-72
2023/08/26 12:00:21;;;;;;;;;;;18.60;99.90;;;;;;8428252;28;19932;-72
2023/08/26 12:04:23;;;;;;;;;;;18.70;99.90;;;;;;8410541;28;19942;-72
2023/08/26 12:08:25;;;;;;;;;;;18.80;99.90;;;;;;8407528;28;20453;-71
2023/08/26 12:17:30;;;;;;;;;;;19.20;99.90;;;;;;8420079;28;19935;-72
2023/08/26 12:21:31;;;;;;;;;;;19.30;99.90;;;;;;8736517;22;19947;-73
2023/08/26 12:25:35;;;;;;;;;;;19.20;99.90;;;;;;8339599;28;19933;-74
2023/08/26 12:29:37;;;;;;;;;;;19.10;99.90;;;;;;8340849;28;19933;-74
2023/08/26 12:33:38;;;;;;;;;;;19.00;99.90;;;;;;8343517;28;19936;-73
2023/08/26 12:37:50;;;;;;;;;;;19.00;99.90;;;;;;8344749;28;19935;-73
2023/08/26 12:41:52;;;;;;;;;;;18.90;99.90;;;;;;8347754;28;19933;-73
2023/08/26 12:45:54;;;;;;;;;;;18.90;99.90;;;;;;8346336;28;19925;-74
2023/08/26 12:49:57;;;;;;;;;;;18.90;99.90;;;;;;8337842;28;19929;-74
2023/08/26 12:53:58;;;;;;;;;;;18.90;99.90;;;;;;8337277;28;19979;-74
2023/08/26 12:58:00;;;;;;;;;;;18.90;99.90;;;;;;8363563;28;19951;-73
2023/08/26 13:02:02;;;;;;;;;;;18.80;99.90;;;;;;8334073;28;19986;-73
2023/08/26 13:06:04;;;;;;;;;;;18.70;99.90;;;;;;8347094;28;19933;-74
2023/08/26 13:10:06;;;;;;;;;;;18.50;99.90;;;;;;8337867;28;19936;-73
2023/08/26 13:14:08;;;;;;;;;;;18.40;99.90;;;;;;8335455;28;19933;-73
2023/08/26 13:18:09;;;;;;;;;;;18.30;99.90;;;;;;8347392;28;19936;-72
2023/08/26 13:22:11;;;;;;;;;;;18.30;99.90;;;;;;8367854;28;19933;-73
2023/08/26 13:26:13;;;;;;;;;;;18.10;99.90;;;;;;8372813;28;19939;-73
2023/08/26 13:30:14;;;;;;;;;;;18.10;99.90;;;;;;8378316;28;20379;-74
2023/08/26 13:34:16;;;;;;;;;;;18.00;99.90;;;;;;8361112;28;19932;-73
2023/08/26 13:38:18;;;;;;;;;;;18.10;99.90;;;;;;8375726;28;19928;-74
2023/08/26 13:42:19;;;;;;;;;;;18.10;99.90;;;;;;8362270;28;19925;-73
2023/08/26 13:46:21;;;;;;;;;;;18.20;99.90;;;;;;8375289;28;19924;-73
2023/08/26 13:50:23;;;;;;;;;;;18.20;99.90;;;;;;8371511;28;19983;-74
2023/08/26 13:54:25;;;;;;;;;;;18.30;99.90;;;;;;8364868;28;19958;-74
2023/08/26 13:58:26;;;;;;;;;;;18.40;99.90;;;;;;8368849;28;19932;-73
2023/08/26 14:02:28;;;;;;;;;;;18.50;99.90;;;;;;8369743;28;19924;-74
2023/08/26 14:06:30;;;;;;;;;;;18.50;99.90;;;;;;8370543;28;20307;-73
2023/08/26 14:10:31;;;;;;;;;;;18.60;99.90;;;;;;8365589;28;20330;-73
2023/08/26 14:14:33;;;;;;;;;;;18.60;99.90;;;;;;8365369;28;19925;-73
2023/08/26 14:18:35;;;;;;;;;;;18.60;99.90;;;;;;8376729;28;19940;-74
2023/08/26 14:22:36;;;;;;;;;;;18.60;99.90;;;;;;8374316;28;19936;-74
2023/08/26 14:26:38;;;;;;;;;;;18.50;99.90;;;;;;8377984;28;19939;-74
2023/08/26 14:30:40;;;;;;;;;;;18.40;99.90;;;;;;8374129;28;19924;-73
2023/08/26 14:34:41;;;;;;;;;;;18.40;99.90;;;;;;8375463;28;20628;-73
2023/08/26 14:38:44;;;;;;;;;;;18.20;99.90;;;;;;8371521;28;19936;-74
2023/08/26 14:42:46;;;;;;;;;;;18.10;99.90;;;;;;8364185;28;20238;-73
2023/08/26 14:46:48;;;;;;;;;;;18.00;99.90;;;;;;8374135;28;19928;-73
2023/08/26 14:50:52;;;;;;;;;;;18.10;99.90;;;;;;8372602;28;19925;-73
2023/08/26 14:54:54;;;;;;;;;;;18.30;99.90;;;;;;8374052;28;19931;-73
2023/08/26 14:58:56;;;;;;;;;;;18.50;99.90;;;;;;8374846;28;19948;-73
2023/08/26 15:02:58;;;;;;;;;;;18.70;99.90;;;;;;8371923;28;19981;-74
2023/08/26 15:07:00;;;;;;;;;;;18.90;99.90;;;;;;8380512;28;19939;-74
2023/08/26 15:11:01;;;;;;;;;;;19.20;99.90;;;;;;8374094;28;19928;-72
2023/08/26 15:15:03;;;;;;;;;;;19.50;99.90;;;;;;8378736;28;20031;-72
2023/08/26 15:19:05;;;;;;;;;;;19.80;99.90;;;;;;8358049;28;19924;-71
2023/08/26 15:23:06;;;;;;;;;;;20.10;99.90;;;;;;8379184;28;19974;-72
2023/08/26 15:27:08;;;;;;;;;;;20.40;99.90;;;;;;8369008;28;20023;-72
2023/08/26 15:31:10;;;;;;;;;;;20.60;99.90;;;;;;8370195;28;19979;-71
2023/08/26 15:35:11;;;;;;;;;;;20.60;99.90;;;;;;8353885;28;20337;-72
2023/08/26 15:39:13;;;;;;;;;;;20.50;99.90;;;;;;8378299;28;20279;-72
2023/08/26 15:43:15;;;;;;;;;;;20.50;99.90;;;;;;8377983;28;19982;-72
2023/08/26 15:47:16;;;;;;;;;;;20.50;99.90;;;;;;8373341;28;19925;-72
2023/08/26 15:51:18;;;;;;;;;;;20.80;99.90;;;;;;8368614;28;20303;-72
2023/08/26 15:55:20;;;;;;;;;;;21.20;99.90;;;;;;8368579;28;19925;-72
2023/08/26 15:59:21;;;;;;;;;;;21.40;99.90;;;;;;8372825;28;19929;-73
2023/08/26 16:03:23;;;;;;;;;;;21.30;99.90;;;;;;8371149;28;19931;-73
2023/08/26 16:07:25;;;;;;;;;;;21.20;99.90;;;;;;8380797;28;20283;-72
2023/08/26 16:11:30;;;;;;;;;;;21.10;99.90;;;;;;8373858;28;19985;-72
2023/08/26 16:15:32;;;;;;;;;;;21.00;99.90;;;;;;8376549;28;19928;-72
2023/08/26 16:19:34;;;;;;;;;;;21.10;99.90;;;;;;8377539;28;19975;-72
2023/08/26 16:23:35;;;;;;;;;;;21.10;99.90;;;;;;8376720;28;20434;-72
2023/08/26 16:27:37;;;;;;;;;;;20.70;99.90;;;;;;8379380;28;20295;-71
2023/08/26 16:31:39;;;;;;;;;;;20.10;99.90;;;;;;8368152;28;19933;-71
2023/08/26 16:35:41;;;;;;;;;;;19.50;99.90;;;;;;8365242;28;19928;-71
2023/08/26 16:39:42;;;;;;;;;;;19.00;99.90;;;;;;8366412;28;20453;-71
2023/08/26 16:43:44;;;;;;;;;;;18.80;99.90;;;;;;8363850;28;19929;-71
2023/08/26 16:47:46;;;;;;;;;;;18.60;99.90;;;;;;8374444;28;19948;-72
2023/08/26 16:51:47;;;;;;;;;;;18.50;99.90;;;;;;8378226;28;19928;-71
2023/08/26 16:55:49;;;;;;;;;;;18.40;99.90;;;;;;8371921;28;19935;-71
2023/08/26 16:59:52;;;;;;;;;;;18.30;99.90;;;;;;8371152;28;19971;-71
2023/08/26 17:03:54;;;;;;;;;;;18.30;99.90;;;;;;8378465;28;19928;-70
2023/08/26 17:07:55;;;;;;;;;;;18.30;99.90;;;;;;8365337;28;19932;-72
2023/08/26 17:11:57;;;;;;;;;;;18.30;99.90;;;;;;8373659;28;19951;-71
2023/08/26 17:16:02;;;;;;;;;;;18.40;99.90;;;;;;8369379;28;19986;-71
2023/08/26 17:20:04;;;;;;;;;;;18.50;99.90;;;;;;8373951;28;19950;-71
2023/08/26 17:24:05;;;;;;;;;;;18.50;99.90;;;;;;8367492;28;19925;-71
2023/08/26 17:28:07;;;;;;;;;;;18.50;99.90;;;;;;8368704;28;20302;-71
2023/08/26 17:32:11;;;;;;;;;;;18.60;99.90;;;;;;8369465;28;20283;-71
2023/08/26 17:36:13;;;;;;;;;;;18.70;99.90;;;;;;8374008;28;19932;-71
2023/08/26 17:40:14;;;;;;;;;;;18.70;99.90;;;;;;8376072;28;19936;-71
2023/08/26 17:44:16;;;;;;;;;;;18.80;99.90;;;;;;8375135;28;20332;-71
2023/08/26 17:48:18;;;;;;;;;;;18.80;99.90;;;;;;8383176;28;19929;-71
2023/08/26 17:52:19;;;;;;;;;;;18.90;99.90;;;;;;8376291;28;19925;-71
2023/08/26 17:56:21;;;;;;;;;;;18.90;99.90;;;;;;8358256;28;19929;-71
2023/08/26 18:00:23;;;;;;;;;;;18.90;99.90;;;;;;8379445;28;19928;-71
2023/08/26 18:04:24;;;;;;;;;;;18.80;99.90;;;;;;8376930;28;19986;-71
2023/08/26 18:08:26;;;;;;;;;;;18.80;99.90;;;;;;8372001;28;19931;-71
2023/08/26 18:12:28;;;;;;;;;;;18.80;99.90;;;;;;8367483;28;19978;-71
2023/08/26 18:16:29;;;;;;;;;;;18.70;99.90;;;;;;8379797;28;19947;-71
2023/08/26 18:20:31;;;;;;;;;;;18.70;99.90;;;;;;8378669;28;19925;-71
2023/08/26 18:24:33;;;;;;;;;;;18.60;99.90;;;;;;8377731;28;20303;-71
2023/08/26 18:28:34;;;;;;;;;;;18.50;99.90;;;;;;8372083;28;20609;-71
2023/08/26 18:32:36;;;;;;;;;;;18.50;99.90;;;;;;8380990;28;19925;-71
2023/08/26 18:36:38;;;;;;;;;;;18.40;99.90;;;;;;8382000;28;19974;-71
2023/08/26 18:40:40;;;;;;;;;;;18.30;99.90;;;;;;8384758;28;20302;-71
2023/08/26 18:44:42;;;;;;;;;;;18.20;99.90;;;;;;8379867;28;19932;-71
2023/08/26 18:48:44;;;;;;;;;;;18.20;99.90;;;;;;8358919;28;19925;-72
2023/08/26 18:52:45;;;;;;;;;;;18.10;99.90;;;;;;8375443;28;19924;-71
2023/08/26 18:56:47;;;;;;;;;;;18.00;99.90;;;;;;8378947;28;19925;-71
2023/08/26 19:00:49;;;;;;;;;;;17.90;99.90;;;;;;8387242;28;19946;-71
2023/08/26 19:04:51;;;;;;;;;;;17.90;99.90;;;;;;8384238;28;19924;-71
2023/08/26 19:08:53;;;;;;;;;;;17.80;99.90;;;;;;8370581;28;19924;-71
2023/08/26 19:12:54;;;;;;;;;;;17.70;99.90;;;;;;8378231;28;19932;-71
2023/08/26 19:16:56;;;;;;;;;;;17.60;99.90;;;;;;8376955;28;19936;-71
2023/08/26 19:20:58;;;;;;;;;;;17.60;99.90;;;;;;8372371;28;19963;-71
2023/08/26 19:25:00;;;;;;;;;;;17.50;99.90;;;;;;8370703;28;19960;-71
2023/08/26 19:29:01;;;;;;;;;;;17.50;99.90;;;;;;8371749;28;19990;-71
2023/08/26 19:33:03;;;;;;;;;;;17.40;99.90;;;;;;8375912;28;19938;-71
2023/08/26 19:37:06;;;;;;;;;;;17.40;99.90;;;;;;8377052;28;19960;-71
2023/08/26 19:41:08;;;;;;;;;;;17.30;99.90;;;;;;8376611;28;19932;-71
2023/08/26 19:45:10;;;;;;;;;;;17.30;99.90;;;;;;8367760;28;19928;-71
2023/08/26 19:49:11;;;;;;;;;;;17.30;99.90;;;;;;8375036;28;20314;-71
2023/08/26 19:53:13;;;;;;;;;;;17.20;99.90;;;;;;8376379;28;19929;-71
2023/08/26 19:57:27;;;;;;;;;;;17.20;99.90;;;;;;8384631;28;19928;-71
2023/08/26 20:01:29;;;;;;;;;;;17.20;99.90;;;;;;8374141;28;19928;-71
2023/08/26 20:05:30;;;;;;;;;;;17.20;99.90;;;;;;8373336;28;20405;-71
2023/08/26 20:09:32;;;;;;;;;;;17.20;99.90;;;;;;8374775;28;20325;-71
2023/08/26 20:13:33;;;;;;;;;;;17.10;99.90;;;;;;8382555;28;19936;-71
2023/08/26 20:17:35;;;;;;;;;;;17.10;99.90;;;;;;8374682;28;20364;-71
2023/08/26 20:21:37;;;;;;;;;;;17.00;99.90;;;;;;8371620;28;19929;-71
2023/08/26 20:25:40;;;;;;;;;;;17.00;99.90;;;;;;8354929;28;19928;-71
2023/08/26 20:29:48;;;;;;;;;;;16.90;99.90;;;;;;8373769;28;19929;-71
2023/08/26 20:33:50;;;;;;;;;;;16.90;99.90;;;;;;8368235;28;19925;-71
2023/08/26 20:37:51;;;;;;;;;;;16.80;99.90;;;;;;8385911;28;20371;-72
2023/08/26 20:41:53;;;;;;;;;;;16.80;99.90;;;;;;8373339;28;19924;-71
2023/08/26 20:45:58;;;;;;;;;;;16.80;99.90;;;;;;8372871;28;19925;-71
2023/08/26 20:50:01;;;;;;;;;;;16.80;99.90;;;;;;8375546;28;19936;-71
2023/08/26 20:54:03;;;;;;;;;;;16.80;99.90;;;;;;8366731;28;20360;-71
2023/08/26 20:58:04;;;;;;;;;;;16.80;99.90;;;;;;8370575;28;19971;-72
2023/08/26 21:02:06;;;;;;;;;;;16.70;99.90;;;;;;8353803;28;19959;-71
2023/08/26 21:06:08;;;;;;;;;;;16.70;99.90;;;;;;8380299;28;19936;-71
2023/08/26 21:10:09;;;;;;;;;;;16.60;99.90;;;;;;8382345;28;19925;-71
2023/08/26 21:14:11;;;;;;;;;;;16.60;99.90;;;;;;8367914;28;20276;-71
2023/08/26 21:18:13;;;;;;;;;;;16.50;99.90;;;;;;8357643;28;20287;-71
2023/08/26 21:32:36;;;;;;;;;;;16.50;99.90;;;;;;8370392;28;19923;-71
2023/08/26 21:36:38;;;;;;;;;;;16.50;99.90;;;;;;8366804;28;19968;-71
2023/08/26 21:40:40;;;;;;;;;;;16.50;99.90;;;;;;8371306;28;20414;-71
2023/08/26 21:44:41;;;;;;;;;;;16.50;99.90;;;;;;8365462;28;19924;-71
2023/08/26 21:48:43;;;;;;;;;;;16.40;99.90;;;;;;8355194;28;19925;-71
2023/08/26 21:52:45;;;;;;;;;;;16.40;99.90;;;;;;8365426;28;20387;-71
2023/08/26 21:56:46;;;;;;;;;;;16.40;99.90;;;;;;8370551;28;19932;-71
2023/08/26 22:00:48;;;;;;;;;;;16.40;99.90;;;;;;8367230;28;19947;-71
2023/08/26 22:04:50;;;;;;;;;;;16.30;99.90;;;;;;8370141;28;20405;-71
2023/08/26 22:08:52;;;;;;;;;;;16.30;99.90;;;;;;8373005;28;19948;-71
2023/08/26 22:12:55;;;;;;;;;;;16.30;99.90;;;;;;8373920;28;21331;-71
2023/08/26 22:16:58;;;;;;;;;;;16.30;99.90;;;;;;8377287;28;19932;-71
2023/08/26 22:20:59;;;;;;;;;;;16.20;99.90;;;;;;8368758;28;20349;-71
2023/08/26 22:25:01;;;;;;;;;;;16.20;99.90;;;;;;8362818;28;20279;-71
2023/08/26 22:29:03;;;;;;;;;;;16.10;99.90;;;;;;8377464;28;19944;-71
2023/08/26 22:33:05;;;;;;;;;;;16.10;99.90;;;;;;8380286;28;19935;-71
2023/08/26 22:37:06;;;;;;;;;;;16.10;99.90;;;;;;8355195;28;19935;-71
2023/08/26 22:41:08;;;;;;;;;;;16.10;99.90;;;;;;8375604;28;19924;-71
2023/08/26 22:45:10;;;;;;;;;;;16.10;99.90;;;;;;8371913;28;19932;-71
2023/08/26 22:49:11;;;;;;;;;;;16.00;99.90;;;;;;8365426;28;20281;-71
2023/08/26 22:53:16;;;;;;;;;;;16.00;99.90;;;;;;8364437;28;20334;-72
2023/08/26 22:57:19;;;;;;;;;;;16.00;99.90;;;;;;8368315;28;19924;-71
2023/08/26 23:01:20;;;;;;;;;;;15.90;99.90;;;;;;8374174;28;20374;-71
2023/08/26 23:05:22;;;;;;;;;;;15.90;99.90;;;;;;8373636;28;19924;-71
2023/08/26 23:09:24;;;;;;;;;;;16.00;99.90;;;;;;8365597;28;19925;-72
2023/08/26 23:13:25;;;;;;;;;;;16.00;99.90;;;;;;8374089;28;19924;-71
2023/08/26 23:17:28;;;;;;;;;;;16.00;99.90;;;;;;8371537;28;19979;-71
2023/08/26 23:21:30;;;;;;;;;;;16.00;99.90;;;;;;8365403;28;19924;-71
2023/08/26 23:25:31;;;;;;;;;;;15.90;99.90;;;;;;8374794;28;19924;-71
2023/08/26 23:29:33;;;;;;;;;;;15.80;99.90;;;;;;8372464;28;19951;-71
2023/08/26 23:33:35;;;;;;;;;;;15.80;99.90;;;;;;8368477;28;20318;-71
2023/08/26 23:37:36;;;;;;;;;;;15.70;99.90;;;;;;8378059;28;20275;-71
2023/08/26 23:41:38;;;;;;;;;;;15.60;99.90;;;;;;8371449;28;20374;-71
2023/08/26 23:45:40;;;;;;;;;;;15.60;99.90;;;;;;8372277;28;19978;-71
2023/08/26 23:49:41;;;;;;;;;;;15.60;99.90;;;;;;8375242;28;19933;-71
2023/08/26 23:53:43;;;;;;;;;;;15.60;99.90;;;;;;8374051;28;19924;-71
2023/08/26 23:57:45;;;;;;;;;;;15.50;99.90;;;;;;8374195;28;19929;-71
